Time;durP1;ratioP1;P1;durP2;ratioP2;P2;SDS_P1;SDS_P2;PMS_P1;PMS_P2;Temp;Humidity;BMP_temperature;BMP_pressure;BME280_temperature;BME280_humidity;BME280_pressure;Samples;Min_cycle;Max_cycle;Signal;HPM_P1;HPM_P2
2022/06/04 00:00:31;;;;;;;7.13;6.50;;;14.20;99.90;;;;;;4976771;28;20462;-74
2022/06/04 00:03:21;;;;;;;6.80;6.20;;;14.20;99.90;;;;;;4975879;28;20469;-75
2022/06/04 00:06:09;;;;;;;6.67;6.17;;;14.10;99.90;;;;;;4974063;28;20482;-77
2022/06/04 00:08:58;;;;;;;5.77;5.30;;;14.10;99.90;;;;;;4975995;28;20600;-76
2022/06/04 00:17:58;;;;;;;6.63;6.07;;;13.90;99.90;;;;;;4976424;28;21029;-75
2022/06/04 00:20:49;;;;;;;5.90;5.50;;;13.90;99.90;;;;;;4978261;28;20508;-75
2022/06/04 00:23:37;;;;;;;7.30;6.60;;;13.80;99.90;;;;;;4976728;28;21000;-76
2022/06/04 00:26:25;;;;;;;6.17;5.67;;;13.80;99.90;;;;;;4973723;28;20481;-75
2022/06/04 00:29:14;;;;;;;6.97;6.40;;;13.70;99.90;;;;;;4969094;28;20523;-78
2022/06/04 00:32:04;;;;;;;6.03;5.53;;;13.70;99.90;;;;;;4977978;28;20466;-75
2022/06/04 00:34:52;;;;;;;6.80;6.20;;;13.70;99.90;;;;;;4974333;28;20486;-77
2022/06/04 00:37:42;;;;;;;6.20;5.70;;;13.60;99.90;;;;;;4974862;28;20942;-77
2022/06/04 00:40:36;;;;;;;6.63;6.03;;;13.60;99.90;;;;;;4974767;28;20494;-75
2022/06/04 00:43:25;;;;;;;7.43;6.60;;;13.50;99.90;;;;;;4973166;28;20549;-75
2022/06/04 00:46:56;;;;;;;7.00;6.40;;;13.60;99.90;;;;;;4974338;28;20485;-76
2022/06/04 00:49:44;;;;;;;7.00;6.33;;;13.50;99.90;;;;;;4972845;28;20962;-76
2022/06/04 00:52:33;;;;;;;7.23;6.53;;;13.40;99.90;;;;;;4976410;28;20481;-75
2022/06/04 00:55:24;;;;;;;7.30;6.70;;;13.40;99.90;;;;;;4976307;28;20604;-76
2022/06/04 00:58:33;;;;;;;7.23;6.53;;;13.30;99.90;;;;;;4979757;28;20474;-75
2022/06/04 01:01:25;;;;;;;7.97;6.87;;;13.40;99.90;;;;;;4972695;28;20549;-75
2022/06/04 01:07:53;;;;;;;6.23;5.67;;;13.20;99.90;;;;;;4974913;28;20481;-75
2022/06/04 01:10:53;;;;;;;7.00;6.40;;;13.30;99.90;;;;;;4978513;28;20473;-78
2022/06/04 01:13:56;;;;;;;7.80;6.80;;;13.10;99.90;;;;;;4973840;28;20610;-78
2022/06/04 01:16:51;;;;;;;7.70;6.90;;;13.10;99.90;;;;;;4974522;28;20980;-76
2022/06/04 01:19:56;;;;;;;6.93;6.33;;;13.10;99.90;;;;;;4977092;28;20445;-75
2022/06/04 01:23:20;;;;;;;7.87;7.00;;;13.00;99.90;;;;;;4970727;28;20551;-76
2022/06/04 01:26:45;;;;;;;9.63;8.63;;;12.90;99.90;;;;;;4975680;28;20576;-75
2022/06/04 01:29:39;;;;;;;15.67;14.20;;;13.00;99.90;;;;;;4976906;28;20513;-75
2022/06/04 01:32:31;;;;;;;24.57;21.97;;;13.00;99.90;;;;;;4976576;28;20504;-75
2022/06/04 01:35:25;;;;;;;24.00;21.70;;;13.00;99.90;;;;;;4979640;28;20549;-78
2022/06/04 01:38:18;;;;;;;28.30;24.20;;;13.00;99.90;;;;;;4974921;28;20490;-74
2022/06/04 01:41:10;;;;;;;25.97;23.43;;;12.90;99.90;;;;;;4978147;28;20625;-76
2022/06/04 01:44:05;;;;;;;22.63;20.23;;;12.80;99.90;;;;;;4978490;28;20480;-75
2022/06/04 01:46:58;;;;;;;17.50;15.77;;;12.70;99.90;;;;;;4976722;28;20594;-75
2022/06/04 01:49:50;;;;;;;15.93;14.23;;;12.70;99.90;;;;;;4979194;28;20468;-75
2022/06/04 01:52:41;;;;;;;13.10;11.80;;;12.60;99.90;;;;;;4973913;28;20548;-76
2022/06/04 01:55:36;;;;;;;12.40;11.10;;;12.60;99.90;;;;;;4978012;28;20487;-75
2022/06/04 01:58:28;;;;;;;11.77;10.60;;;12.60;99.90;;;;;;4979325;28;20572;-77
2022/06/04 02:01:23;;;;;;;10.60;9.60;;;12.60;99.90;;;;;;4981625;28;20457;-77
2022/06/04 02:04:15;;;;;;;9.93;9.03;;;12.50;99.90;;;;;;4973749;28;20453;-75
2022/06/04 02:07:31;;;;;;;10.13;8.87;;;12.40;99.90;;;;;;4977470;28;20608;-79
2022/06/04 02:10:24;;;;;;;9.43;8.47;;;12.40;99.90;;;;;;4977413;28;20470;-75
2022/06/04 02:13:15;;;;;;;8.60;7.90;;;12.50;99.90;;;;;;4978114;28;20592;-77
2022/06/04 02:16:08;;;;;;;10.17;9.17;;;12.40;99.90;;;;;;4979378;28;20856;-76
2022/06/04 02:18:59;;;;;;;11.00;9.03;;;12.40;99.90;;;;;;4975167;28;20488;-75
2022/06/04 02:21:48;;;;;;;13.03;9.33;;;12.30;99.90;;;;;;4979607;28;20940;-75
2022/06/04 02:24:36;;;;;;;11.10;8.80;;;12.30;99.90;;;;;;4979161;28;20482;-75
2022/06/04 02:27:24;;;;;;;9.43;8.33;;;12.20;99.90;;;;;;4978370;28;20621;-76
2022/06/04 02:30:14;;;;;;;10.10;9.07;;;12.30;99.90;;;;;;4971526;28;20543;-75
2022/06/04 02:33:10;;;;;;;11.40;10.17;;;12.20;99.90;;;;;;4980964;28;20462;-75
2022/06/04 02:36:03;;;;;;;10.10;9.13;;;12.10;99.90;;;;;;4980190;28;20561;-75
2022/06/04 02:39:00;;;;;;;10.30;9.30;;;12.10;99.90;;;;;;4975508;28;20517;-75
2022/06/04 02:41:53;;;;;;;10.80;9.70;;;12.10;99.90;;;;;;4979911;28;20531;-75
2022/06/04 02:44:47;;;;;;;9.80;8.43;;;12.10;99.90;;;;;;4980553;28;20505;-75
2022/06/04 02:47:40;;;;;;;10.30;9.30;;;12.00;99.90;;;;;;4979052;28;21020;-76
2022/06/04 02:50:33;;;;;;;10.50;9.50;;;12.00;99.90;;;;;;4974872;28;20686;-75
2022/06/04 02:53:25;;;;;;;10.13;9.00;;;11.90;99.90;;;;;;4977294;28;20454;-77
2022/06/04 02:56:18;;;;;;;14.90;9.67;;;12.00;99.90;;;;;;4978310;28;20505;-75
2022/06/04 02:59:09;;;;;;;9.77;8.87;;;11.90;99.90;;;;;;4978039;28;20567;-76
2022/06/04 03:02:01;;;;;;;10.67;9.57;;;11.90;99.90;;;;;;4974112;28;20526;-75
2022/06/04 03:04:55;;;;;;;9.70;8.80;;;11.80;99.90;;;;;;4976877;28;20886;-76
2022/06/04 03:07:47;;;;;;;10.40;9.40;;;11.80;99.90;;;;;;4976369;28;20616;-75
2022/06/04 03:10:37;;;;;;;10.53;9.40;;;11.80;99.90;;;;;;4978390;28;21232;-75
2022/06/04 03:13:26;;;;;;;11.07;9.37;;;11.80;99.90;;;;;;4979715;28;20877;-75
2022/06/04 03:16:14;;;;;;;12.73;10.60;;;11.70;99.90;;;;;;4975038;28;20539;-79
2022/06/04 03:19:03;;;;;;;12.10;9.27;;;11.70;99.90;;;;;;4972837;28;20477;-75
2022/06/04 03:21:52;;;;;;;10.87;9.43;;;11.70;99.90;;;;;;4980270;28;20493;-75
2022/06/04 03:24:40;;;;;;;10.67;9.67;;;11.70;99.90;;;;;;4974197;28;20485;-75
2022/06/04 03:27:32;;;;;;;12.97;10.43;;;11.70;99.90;;;;;;4976721;28;20525;-75
2022/06/04 03:30:20;;;;;;;11.00;9.90;;;11.70;99.90;;;;;;4988171;28;20481;-75
2022/06/04 03:33:09;;;;;;;11.93;10.73;;;11.70;99.90;;;;;;4993421;28;20516;-77
2022/06/04 03:35:57;;;;;;;11.50;9.97;;;11.60;99.90;;;;;;4975487;28;20499;-77
2022/06/04 03:38:45;;;;;;;14.93;10.57;;;11.60;99.90;;;;;;4973457;28;20481;-75
2022/06/04 03:41:34;;;;;;;12.83;10.50;;;11.50;99.90;;;;;;4978155;28;20508;-75
2022/06/04 03:44:23;;;;;;;11.37;10.17;;;11.60;99.90;;;;;;4973422;28;20525;-76
2022/06/04 03:47:12;;;;;;;11.37;10.23;;;11.60;99.90;;;;;;4973921;28;20496;-75
2022/06/04 03:50:00;;;;;;;12.80;10.90;;;11.60;99.90;;;;;;4972713;28;20588;-75
2022/06/04 03:52:50;;;;;;;11.40;10.03;;;11.60;99.90;;;;;;4974700;28;20541;-75
2022/06/04 03:55:38;;;;;;;10.50;9.50;;;11.60;99.90;;;;;;4976569;28;20487;-75
2022/06/04 03:58:30;;;;;;;10.47;9.37;;;11.60;99.90;;;;;;4976408;28;20481;-75
2022/06/04 04:01:21;;;;;;;12.47;9.97;;;11.60;99.90;;;;;;4975392;28;20457;-75
2022/06/04 04:04:09;;;;;;;11.87;10.57;;;11.60;99.90;;;;;;4976576;28;20453;-75
2022/06/04 04:06:57;;;;;;;10.80;9.80;;;11.50;99.90;;;;;;4974822;28;20544;-75
2022/06/04 04:09:46;;;;;;;12.37;10.67;;;11.60;99.90;;;;;;4977872;28;20956;-76
2022/06/04 04:12:34;;;;;;;12.03;10.83;;;11.60;99.90;;;;;;4976104;28;20510;-76
2022/06/04 04:15:23;;;;;;;10.00;9.00;;;11.60;99.90;;;;;;4968061;28;20493;-75
2022/06/04 04:18:13;;;;;;;12.73;10.33;;;11.70;99.90;;;;;;4968838;28;20527;-75
2022/06/04 04:21:07;;;;;;;13.20;10.67;;;11.60;99.90;;;;;;4979215;28;20541;-75
2022/06/04 04:23:55;;;;;;;14.77;10.63;;;11.60;99.90;;;;;;4977485;28;20543;-78
2022/06/04 04:26:43;;;;;;;14.80;11.40;;;11.60;99.90;;;;;;4973219;28;20458;-74
2022/06/04 04:29:32;;;;;;;12.37;11.17;;;11.70;99.90;;;;;;4975120;28;20943;-75
2022/06/04 04:32:20;;;;;;;12.10;10.23;;;11.60;99.90;;;;;;4969810;28;20874;-76
2022/06/04 04:35:14;;;;;;;12.07;10.77;;;11.70;99.90;;;;;;4964018;28;20878;-76
2022/06/04 04:38:04;;;;;;;13.23;11.40;;;11.70;99.90;;;;;;4970989;28;20541;-75
2022/06/04 04:40:52;;;;;;;12.87;11.50;;;11.70;99.90;;;;;;4977225;28;20490;-75
2022/06/04 04:43:41;;;;;;;12.73;11.17;;;11.60;99.90;;;;;;4979117;28;20450;-77
2022/06/04 04:46:29;;;;;;;11.47;10.27;;;11.70;99.90;;;;;;4973378;28;20512;-77
2022/06/04 04:49:18;;;;;;;12.87;11.57;;;11.70;99.90;;;;;;4973624;28;20489;-78
2022/06/04 04:52:08;;;;;;;13.40;12.00;;;11.70;99.90;;;;;;4972904;28;20527;-74
2022/06/04 04:54:56;;;;;;;13.30;11.60;;;11.70;99.90;;;;;;4977568;28;20499;-75
2022/06/04 04:57:45;;;;;;;18.13;12.33;;;11.80;99.90;;;;;;4976467;28;20469;-75
2022/06/04 05:00:34;;;;;;;12.80;11.30;;;11.80;99.90;;;;;;4976906;28;20500;-77
2022/06/04 05:03:22;;;;;;;14.13;11.90;;;11.90;99.90;;;;;;4977481;28;20680;-75
2022/06/04 05:06:12;;;;;;;13.00;11.60;;;11.90;99.90;;;;;;4975093;28;20545;-75
2022/06/04 05:09:02;;;;;;;13.43;12.13;;;11.90;99.90;;;;;;4978130;28;20509;-75
2022/06/04 05:11:50;;;;;;;13.00;10.33;;;12.00;99.90;;;;;;4977556;28;20581;-75
2022/06/04 05:14:39;;;;;;;12.40;11.10;;;12.10;99.90;;;;;;4978042;28;20567;-75
2022/06/04 05:17:27;;;;;;;12.60;11.40;;;12.10;99.90;;;;;;4976291;28;20493;-78
2022/06/04 05:20:16;;;;;;;17.63;11.77;;;12.20;99.90;;;;;;4976151;28;20461;-76
2022/06/04 05:23:06;;;;;;;13.67;11.00;;;12.30;99.90;;;;;;4977743;28;20456;-75
2022/06/04 05:25:57;;;;;;;12.70;10.10;;;12.30;99.90;;;;;;4977108;28;20561;-75
2022/06/04 05:28:46;;;;;;;13.90;11.90;;;12.40;99.90;;;;;;4975932;28;20481;-79
2022/06/04 05:31:34;;;;;;;14.10;11.70;;;12.40;99.90;;;;;;4976269;28;20664;-77
2022/06/04 05:34:23;;;;;;;13.07;11.00;;;12.50;99.90;;;;;;4973363;28;20453;-78
2022/06/04 05:37:11;;;;;;;14.67;11.20;;;12.50;99.90;;;;;;4976651;28;20618;-75
2022/06/04 05:40:00;;;;;;;12.27;10.63;;;12.50;99.90;;;;;;4978886;28;20996;-75
2022/06/04 05:42:49;;;;;;;14.00;10.47;;;12.60;99.90;;;;;;4973839;28;20556;-76
2022/06/04 05:45:37;;;;;;;12.70;10.33;;;12.60;99.90;;;;;;4975666;28;20595;-75
2022/06/04 05:48:26;;;;;;;12.43;10.73;;;12.60;99.90;;;;;;4978176;28;20516;-75
2022/06/04 05:51:18;;;;;;;11.83;9.93;;;12.70;99.90;;;;;;4976971;28;20587;-78
2022/06/04 05:54:06;;;;;;;12.43;10.20;;;12.70;99.90;;;;;;4971290;28;20462;-75
2022/06/04 05:56:55;;;;;;;11.50;10.03;;;12.70;99.90;;;;;;4974909;28;20492;-75
2022/06/04 05:59:44;;;;;;;11.73;9.87;;;12.70;99.90;;;;;;4978387;28;20527;-76
2022/06/04 06:02:32;;;;;;;11.00;9.80;;;12.80;99.90;;;;;;4977185;28;20965;-76
2022/06/04 06:05:21;;;;;;;10.93;9.67;;;12.80;99.90;;;;;;4972940;28;20561;-78
2022/06/04 06:08:09;;;;;;;10.27;9.27;;;12.90;99.90;;;;;;4969851;28;20486;-77
2022/06/04 06:10:58;;;;;;;10.40;9.40;;;12.90;99.90;;;;;;4989440;28;20453;-76
2022/06/04 06:13:48;;;;;;;11.13;9.03;;;13.00;99.90;;;;;;4984023;28;21022;-76
2022/06/04 06:16:40;;;;;;;12.07;10.00;;;13.00;99.90;;;;;;4976066;28;21140;-76
2022/06/04 06:19:30;;;;;;;10.60;9.60;;;13.10;99.90;;;;;;4971479;28;20575;-76
2022/06/04 06:22:18;;;;;;;11.27;9.63;;;13.20;99.90;;;;;;4979296;28;20528;-76
2022/06/04 06:25:08;;;;;;;11.20;10.10;;;13.20;99.90;;;;;;4978318;28;20588;-76
2022/06/04 06:27:56;;;;;;;12.20;9.90;;;13.20;99.90;;;;;;4968980;28;20599;-75
2022/06/04 06:30:44;;;;;;;10.70;9.60;;;13.30;99.90;;;;;;4978801;28;20457;-76
2022/06/04 06:33:34;;;;;;;13.40;10.13;;;13.40;99.90;;;;;;4973357;28;24022;-76
2022/06/04 06:36:23;;;;;;;12.30;10.30;;;13.40;99.90;;;;;;4976099;28;20561;-77
2022/06/04 06:39:11;;;;;;;12.50;9.23;;;13.50;99.90;;;;;;4973531;28;20539;-80
2022/06/04 06:42:01;;;;;;;14.17;9.77;;;13.50;99.90;;;;;;4979113;28;20557;-77
2022/06/04 06:44:49;;;;;;;11.17;9.97;;;13.60;99.90;;;;;;4978137;28;20668;-76
2022/06/04 06:47:38;;;;;;;10.87;9.50;;;13.70;99.90;;;;;;4976309;28;20477;-76
2022/06/04 06:50:28;;;;;;;12.50;8.80;;;13.70;99.90;;;;;;4976212;28;20547;-76
2022/06/04 06:53:16;;;;;;;10.97;9.90;;;13.80;99.90;;;;;;4979328;28;20950;-77
2022/06/04 06:56:12;;;;;;;10.13;9.13;;;13.90;99.90;;;;;;4978422;28;20941;-76
2022/06/04 06:59:02;;;;;;;9.67;8.50;;;13.90;99.90;;;;;;4978416;28;20489;-76
2022/06/04 07:01:51;;;;;;;11.13;8.43;;;14.00;99.90;;;;;;4976173;28;20525;-76
2022/06/04 07:04:39;;;;;;;10.53;9.53;;;14.10;99.90;;;;;;4975771;28;20474;-77
2022/06/04 07:07:29;;;;;;;10.97;9.87;;;14.10;99.90;;;;;;4968146;28;21134;-76
2022/06/04 07:10:17;;;;;;;10.67;9.57;;;14.20;99.90;;;;;;4963402;28;20539;-78
2022/06/04 07:13:06;;;;;;;9.93;8.93;;;14.30;99.90;;;;;;4977271;28;20497;-79
2022/06/04 07:15:54;;;;;;;10.07;9.17;;;14.30;99.90;;;;;;4974684;28;20483;-76
2022/06/04 07:18:43;;;;;;;11.93;9.17;;;14.40;99.90;;;;;;4970708;28;20633;-77
2022/06/04 07:21:31;;;;;;;9.90;8.90;;;14.50;99.90;;;;;;4974847;28;20477;-76
2022/06/04 07:24:21;;;;;;;9.93;8.87;;;14.60;99.90;;;;;;4970911;28;20624;-77
2022/06/04 07:27:10;;;;;;;10.77;9.63;;;14.60;99.90;;;;;;4966767;28;21037;-77
2022/06/04 07:29:59;;;;;;;9.97;8.97;;;14.70;99.90;;;;;;4967283;28;20992;-77
2022/06/04 07:32:47;;;;;;;10.07;8.67;;;14.80;99.90;;;;;;4966325;28;20678;-76
2022/06/04 07:35:35;;;;;;;10.93;9.83;;;14.90;99.90;;;;;;4962567;28;20472;-77
2022/06/04 07:38:24;;;;;;;9.33;8.50;;;15.00;99.90;;;;;;4958549;28;21020;-76
2022/06/04 07:41:22;;;;;;;8.50;7.80;;;15.00;99.90;;;;;;4950737;28;20480;-76
2022/06/04 07:44:11;;;;;;;9.40;8.60;;;15.10;99.90;;;;;;4971571;28;20465;-77
2022/06/04 07:46:59;;;;;;;8.57;7.77;;;15.10;99.90;;;;;;4966035;28;20549;-79
2022/06/04 07:49:48;;;;;;;9.80;8.90;;;15.10;99.90;;;;;;4980167;28;20898;-77
2022/06/04 07:52:37;;;;;;;9.50;8.60;;;15.20;99.90;;;;;;4977442;28;20453;-76
2022/06/04 07:55:26;;;;;;;8.30;7.50;;;15.20;99.90;;;;;;4977154;28;20571;-76
2022/06/04 07:58:15;;;;;;;10.07;9.17;;;15.30;99.90;;;;;;4974948;28;20573;-76
2022/06/04 08:01:04;;;;;;;8.37;7.67;;;15.40;99.90;;;;;;4972993;28;21204;-75
2022/06/04 08:03:54;;;;;;;9.37;8.47;;;15.30;99.90;;;;;;4974635;28;20466;-75
2022/06/04 08:06:43;;;;;;;8.73;7.90;;;15.30;99.90;;;;;;4977671;28;20450;-76
2022/06/04 08:09:31;;;;;;;8.53;7.73;;;15.40;99.90;;;;;;4974734;28;20575;-75
2022/06/04 08:12:20;;;;;;;8.13;7.33;;;15.50;99.90;;;;;;4976917;28;20493;-77
2022/06/04 08:15:10;;;;;;;9.20;8.30;;;15.50;99.90;;;;;;4978014;28;20493;-77
2022/06/04 08:18:00;;;;;;;8.00;7.13;;;15.60;99.90;;;;;;4977679;28;20555;-78
2022/06/04 08:20:49;;;;;;;7.73;7.10;;;15.70;99.90;;;;;;4977065;28;20533;-77
2022/06/04 08:23:39;;;;;;;8.33;7.50;;;15.70;99.90;;;;;;4978192;28;20464;-75
2022/06/04 08:26:28;;;;;;;9.33;8.10;;;15.80;99.90;;;;;;4975417;28;20493;-76
2022/06/04 08:29:18;;;;;;;8.90;8.10;;;15.80;99.90;;;;;;4975498;28;20571;-76
2022/06/04 08:32:08;;;;;;;9.23;8.30;;;15.90;99.90;;;;;;4974750;28;21308;-77
2022/06/04 08:34:56;;;;;;;9.23;7.83;;;15.90;99.90;;;;;;4973962;28;20621;-76
2022/06/04 08:37:45;;;;;;;9.53;8.63;;;16.00;99.90;;;;;;4974669;28;20522;-78
2022/06/04 08:40:36;;;;;;;8.20;7.43;;;16.00;99.90;;;;;;4976312;28;20982;-77
2022/06/04 08:43:32;;;;;;;7.17;6.57;;;16.00;99.90;;;;;;4977042;28;20445;-76
2022/06/04 08:46:26;;;;;;;7.70;7.00;;;16.10;99.90;;;;;;4977679;28;20487;-75
2022/06/04 08:49:23;;;;;;;7.33;6.63;;;16.10;99.90;;;;;;4975120;28;20599;-75
2022/06/04 08:52:14;;;;;;;7.47;6.87;;;16.20;99.90;;;;;;4980950;28;21088;-77
2022/06/04 08:58:34;;;;;;;6.80;6.20;;;16.30;99.90;;;;;;4976201;28;20497;-75
2022/06/04 09:01:27;;;;;;;6.63;6.03;;;16.40;99.90;;;;;;4975379;28;20450;-78
2022/06/04 09:04:33;;;;;;;7.33;6.67;;;16.40;99.90;;;;;;4977174;28;20565;-76
2022/06/04 09:07:24;;;;;;;6.53;5.93;;;16.50;99.90;;;;;;4975792;28;21162;-76
2022/06/04 09:10:19;;;;;;;6.70;6.10;;;16.50;99.90;;;;;;4976425;28;20581;-75
2022/06/04 09:13:15;;;;;;;7.20;6.50;;;16.60;99.90;;;;;;4972591;28;20859;-76
2022/06/04 09:16:15;;;;;;;6.73;6.13;;;16.60;99.90;;;;;;4977821;28;20489;-78
2022/06/04 09:19:13;;;;;;;7.20;6.53;;;16.70;99.90;;;;;;4978356;28;20965;-78
2022/06/04 09:22:04;;;;;;;6.60;6.10;;;16.80;99.90;;;;;;4974458;28;20478;-76
2022/06/04 09:24:52;;;;;;;5.80;5.40;;;16.80;99.90;;;;;;4976437;28;20620;-77
2022/06/04 09:27:46;;;;;;;5.70;5.20;;;17.00;99.90;;;;;;4974264;28;20485;-75
2022/06/04 09:30:38;;;;;;;6.77;6.20;;;17.00;99.90;;;;;;4970919;28;20497;-77
2022/06/04 09:33:40;;;;;;;8.10;6.30;;;17.10;99.90;;;;;;4965461;28;20681;-79
2022/06/04 09:36:32;;;;;;;5.97;5.50;;;17.10;99.90;;;;;;4964793;28;21347;-77
2022/06/04 09:39:24;;;;;;;6.60;5.77;;;17.20;99.90;;;;;;4969377;28;20486;-76
2022/06/04 09:42:24;;;;;;;6.00;5.50;;;17.30;99.90;;;;;;4973346;28;20461;-79
2022/06/04 09:45:20;;;;;;;6.97;6.13;;;17.40;99.90;;;;;;4973040;28;20545;-78
2022/06/04 09:48:20;;;;;;;6.90;6.30;;;17.40;99.90;;;;;;4969702;28;20473;-78
2022/06/04 09:51:18;;;;;;;6.13;5.53;;;17.60;99.90;;;;;;4974965;28;20611;-76
2022/06/04 09:54:07;;;;;;;6.33;5.70;;;17.60;99.90;;;;;;4981056;28;20461;-75
2022/06/04 09:57:02;;;;;;;5.93;5.47;;;17.60;99.90;;;;;;4976678;28;20568;-76
2022/06/04 09:59:54;;;;;;;5.30;4.83;;;17.60;99.90;;;;;;4975644;28;20490;-76
2022/06/04 10:02:53;;;;;;;6.17;5.57;;;17.70;99.90;;;;;;4976843;28;20476;-78
2022/06/04 10:05:50;;;;;;;5.70;5.20;;;17.80;99.90;;;;;;4978218;28;20541;-77
2022/06/04 10:11:59;;;;;;;5.67;4.70;;;18.00;99.90;;;;;;4974827;28;20461;-76
2022/06/04 10:14:59;;;;;;;5.20;4.80;;;18.10;99.90;;;;;;4973916;28;20571;-79
2022/06/04 10:17:57;;;;;;;5.93;4.30;;;18.20;99.90;;;;;;4966115;28;20557;-76
2022/06/04 10:20:54;;;;;;;5.37;4.93;;;18.20;99.90;;;;;;4966011;28;20548;-79
2022/06/04 10:23:45;;;;;;;5.30;4.90;;;18.30;99.90;;;;;;4968692;28;20603;-77
2022/06/04 10:26:47;;;;;;;5.47;5.07;;;18.30;99.90;;;;;;4966095;28;21102;-76
2022/06/04 10:30:02;;;;;;;5.13;4.73;;;18.40;99.90;;;;;;4969432;28;20559;-77
2022/06/04 10:33:04;;;;;;;5.67;4.70;;;18.50;99.90;;;;;;4966261;28;20482;-79
2022/06/04 10:36:01;;;;;;;5.40;5.00;;;18.60;99.90;;;;;;4969778;28;20512;-76
2022/06/04 10:39:03;;;;;;;6.03;3.97;;;18.70;99.90;;;;;;4969201;28;20504;-78
2022/06/04 10:41:57;;;;;;;4.03;3.77;;;18.70;99.90;;;;;;4968593;28;20525;-76
2022/06/04 10:45:06;;;;;;;6.20;4.27;;;18.80;99.90;;;;;;4972780;28;20531;-76
2022/06/04 10:47:59;;;;;;;9.43;4.20;;;18.80;99.90;;;;;;4970972;28;20516;-76
2022/06/04 10:54:09;;;;;;;4.77;4.33;;;18.90;99.90;;;;;;4974935;28;20517;-77
2022/06/04 10:57:06;;;;;;;4.43;4.13;;;19.00;99.90;;;;;;4965246;28;20504;-76
2022/06/04 11:00:00;;;;;;;4.30;3.90;;;19.10;99.90;;;;;;4972442;28;21219;-76
2022/06/04 11:02:53;;;;;;;4.00;3.73;;;19.20;99.90;;;;;;4973179;28;21420;-76
2022/06/04 11:05:47;;;;;;;3.83;3.53;;;19.20;99.90;;;;;;4968551;28;21091;-76
2022/06/04 11:08:41;;;;;;;4.70;4.13;;;19.40;99.90;;;;;;4970999;28;20507;-75
2022/06/04 11:11:34;;;;;;;3.53;3.23;;;19.50;99.90;;;;;;4960433;28;20556;-78
2022/06/04 11:14:36;;;;;;;3.73;3.43;;;19.60;99.90;;;;;;4972892;28;20508;-76
2022/06/04 11:17:31;;;;;;;3.47;3.27;;;19.60;99.90;;;;;;4967028;28;21069;-75
2022/06/04 11:20:23;;;;;;;3.57;3.30;;;19.70;99.90;;;;;;4962306;28;20453;-77
2022/06/04 11:23:31;;;;;;;3.70;3.37;;;19.80;99.90;;;;;;4967092;28;20501;-75
2022/06/04 11:26:25;;;;;;;3.43;3.20;;;19.90;99.90;;;;;;4968385;28;20473;-76
2022/06/04 11:29:19;;;;;;;3.77;3.47;;;20.00;99.90;;;;;;4963976;28;20484;-75
2022/06/04 11:32:13;;;;;;;4.03;3.73;;;20.10;99.90;;;;;;4972708;28;20573;-76
2022/06/04 11:35:15;;;;;;;3.77;3.53;;;20.10;99.90;;;;;;4978590;28;20529;-78
2022/06/04 11:38:35;;;;;;;3.70;3.40;;;20.10;99.90;;;;;;4977329;28;20940;-78
2022/06/04 11:41:33;;;;;;;3.73;3.43;;;20.30;99.90;;;;;;4970119;28;20481;-78
2022/06/04 11:44:58;;;;;;;4.93;3.23;;;20.40;99.90;;;;;;4967887;28;20548;-76
2022/06/04 11:48:02;;;;;;;3.30;3.10;;;20.50;99.90;;;;;;4968549;28;20594;-75
2022/06/04 11:50:59;;;;;;;3.40;3.20;;;20.60;99.90;;;;;;4966613;28;20475;-76
2022/06/04 11:53:51;;;;;;;3.37;3.07;;;20.70;99.90;;;;;;4964155;28;20942;-76
2022/06/04 11:56:51;;;;;;;3.60;3.30;;;20.80;99.90;;;;;;4965383;28;20501;-76
2022/06/04 11:59:56;;;;;;;4.00;3.67;;;20.90;99.90;;;;;;4967977;28;20572;-76
2022/06/04 12:02:53;;;;;;;3.27;3.07;;;21.00;99.90;;;;;;4978486;28;20457;-78
2022/06/04 12:05:49;;;;;;;3.60;3.30;;;21.10;99.90;;;;;;4969677;28;20473;-77
2022/06/04 12:08:43;;;;;;;3.10;2.90;;;21.10;99.90;;;;;;4977186;28;20555;-77
2022/06/04 12:11:37;;;;;;;3.83;3.53;;;21.20;99.90;;;;;;4964589;28;20883;-76
2022/06/04 12:14:32;;;;;;;3.70;3.50;;;21.30;99.90;;;;;;4977965;28;20577;-76
2022/06/04 12:17:26;;;;;;;3.50;3.30;;;21.40;99.90;;;;;;4964372;28;20516;-79
2022/06/04 12:26:48;;;;;;;3.00;2.70;;;21.70;99.90;;;;;;4972063;28;20460;-76
2022/06/04 12:29:46;;;;;;;2.73;2.53;;;21.80;99.90;;;;;;4968778;28;21307;-80
2022/06/04 12:32:36;;;;;;;2.80;2.60;;;21.90;99.90;;;;;;4957198;28;20466;-77
2022/06/04 12:35:31;;;;;;;2.83;2.63;;;22.00;99.90;;;;;;4970057;28;20473;-76
2022/06/04 12:38:23;;;;;;;3.20;3.00;;;22.00;99.90;;;;;;4965923;28;21563;-78
2022/06/04 12:41:16;;;;;;;3.20;3.00;;;22.10;99.90;;;;;;4968414;28;20489;-76
2022/06/04 12:44:06;;;;;;;2.70;2.60;;;22.20;99.90;;;;;;4965396;28;20553;-77
2022/06/04 12:46:58;;;;;;;3.90;3.37;;;22.30;99.90;;;;;;4968825;28;20465;-76
2022/06/04 12:49:54;;;;;;;3.97;3.27;;;22.40;99.90;;;;;;4966688;28;20454;-76
2022/06/04 12:52:48;;;;;;;3.13;2.93;;;22.40;99.90;;;;;;4970052;28;20464;-76
2022/06/04 12:55:45;;;;;;;3.33;3.13;;;22.40;99.90;;;;;;4964617;28;21063;-79
2022/06/04 12:58:39;;;;;;;2.80;2.60;;;22.60;99.90;;;;;;4969471;28;20500;-80
2022/06/04 13:01:37;;;;;;;2.90;2.70;;;22.70;99.90;;;;;;4969239;28;20461;-76
2022/06/04 13:04:38;;;;;;;3.50;3.20;;;22.80;99.90;;;;;;4972560;28;20441;-76
2022/06/04 13:07:27;;;;;;;3.23;3.03;;;23.00;99.90;;;;;;4965854;28;20770;-79
2022/06/04 13:10:23;;;;;;;3.07;2.87;;;23.10;99.90;;;;;;4960402;28;20465;-76
2022/06/04 13:13:22;;;;;;;3.37;3.17;;;23.10;99.90;;;;;;4967709;28;20552;-76
2022/06/04 13:16:19;;;;;;;3.67;3.37;;;23.20;99.90;;;;;;4977995;28;20473;-75
2022/06/04 13:19:21;;;;;;;3.70;3.50;;;23.40;99.90;;;;;;4959920;28;20481;-75
2022/06/04 13:22:17;;;;;;;3.03;2.83;;;23.50;99.90;;;;;;4955010;28;20467;-77
2022/06/04 13:25:13;;;;;;;3.07;2.77;;;23.60;99.90;;;;;;4963712;28;20532;-75
2022/06/04 13:28:02;;;;;;;3.10;2.47;;;23.80;99.90;;;;;;4968533;28;20635;-76
2022/06/04 13:30:52;;;;;;;2.93;2.70;;;23.80;99.90;;;;;;4964692;28;21938;-78
2022/06/04 13:33:42;;;;;;;2.67;2.47;;;23.80;99.90;;;;;;4961721;28;20571;-75
2022/06/04 13:36:31;;;;;;;2.70;2.60;;;24.00;99.90;;;;;;4973424;28;20473;-77
2022/06/04 13:39:20;;;;;;;3.00;2.80;;;24.10;99.90;;;;;;4979154;28;20584;-75
2022/06/04 13:42:14;;;;;;;3.27;3.00;;;24.20;99.90;;;;;;4977980;28;21111;-75
2022/06/04 13:45:20;;;;;;;3.17;2.97;;;24.40;99.90;;;;;;4981420;28;20505;-78
2022/06/04 13:48:21;;;;;;;3.63;2.60;;;24.40;99.90;;;;;;4989248;28;20544;-75
2022/06/04 13:51:19;;;;;;;2.40;2.30;;;24.40;99.90;;;;;;4987100;28;20452;-77
2022/06/04 13:54:20;;;;;;;3.10;2.80;;;24.50;99.90;;;;;;4986423;28;20481;-75
2022/06/04 13:57:17;;;;;;;3.77;3.17;;;24.60;99.90;;;;;;4978745;28;20559;-75
2022/06/04 14:00:08;;;;;;;3.20;2.90;;;24.60;99.90;;;;;;4979448;28;20865;-75
2022/06/04 14:02:59;;;;;;;2.97;2.77;;;24.80;99.90;;;;;;4984777;28;20529;-76
2022/06/04 14:05:51;;;;;;;3.10;2.80;;;24.90;99.90;;;;;;4993673;28;20556;-75
2022/06/04 14:08:50;;;;;;;3.60;3.30;;;25.10;99.90;;;;;;4994846;28;20465;-76
2022/06/04 14:11:49;;;;;;;3.10;2.90;;;25.10;99.90;;;;;;4986215;28;21001;-75
2022/06/04 14:15:02;;;;;;;3.27;3.07;;;25.10;99.90;;;;;;4985380;28;20497;-75
2022/06/04 14:18:07;;;;;;;2.70;2.50;;;25.20;99.90;;;;;;4983203;28;20634;-77
2022/06/04 14:21:12;;;;;;;3.17;2.90;;;25.40;99.90;;;;;;4972743;28;20630;-77
2022/06/04 14:24:14;;;;;;;3.13;2.93;;;25.60;99.90;;;;;;4976224;28;20505;-76
2022/06/04 14:27:07;;;;;;;3.30;2.87;;;25.70;99.90;;;;;;4975642;28;20478;-76
2022/06/04 14:30:07;;;;;;;3.30;3.10;;;25.80;99.90;;;;;;4979794;28;20908;-76
2022/06/04 14:32:56;;;;;;;3.30;3.00;;;25.80;99.90;;;;;;4979889;28;20556;-77
2022/06/04 14:35:55;;;;;;;3.40;3.10;;;25.90;99.90;;;;;;4974061;28;20504;-76
2022/06/04 14:38:43;;;;;;;3.13;2.80;;;26.00;99.90;;;;;;4970322;28;20613;-78
2022/06/04 14:41:48;;;;;;;3.60;3.00;;;26.00;99.90;;;;;;4985083;28;20485;-78
2022/06/04 14:44:53;;;;;;;2.80;2.60;;;26.00;99.90;;;;;;4978629;28;20543;-78
2022/06/04 14:48:07;;;;;;;3.23;3.00;;;26.20;99.90;;;;;;4971952;28;20851;-77
2022/06/04 14:51:24;;;;;;;3.10;2.80;;;26.30;99.90;;;;;;4975339;28;20549;-78
2022/06/04 14:54:14;;;;;;;3.07;2.87;;;26.40;99.90;;;;;;4975552;28;21356;-77
2022/06/04 14:57:23;;;;;;;2.97;2.77;;;26.40;99.90;;;;;;4977484;28;20478;-77
2022/06/04 15:00:26;;;;;;;2.97;2.53;;;26.50;99.90;;;;;;4974451;28;20556;-76
2022/06/04 15:03:36;;;;;;;3.30;3.00;;;26.50;99.90;;;;;;4971639;28;20794;-77
2022/06/04 15:06:29;;;;;;;3.20;3.00;;;26.40;99.90;;;;;;4974562;28;20532;-76
2022/06/04 15:09:31;;;;;;;3.00;2.80;;;26.50;99.90;;;;;;4961558;28;20488;-77
2022/06/04 15:12:38;;;;;;;2.87;2.67;;;26.40;99.90;;;;;;4968180;28;20468;-77
2022/06/04 15:15:45;;;;;;;3.17;2.87;;;26.60;99.90;;;;;;4965724;28;20482;-77
2022/06/04 15:18:57;;;;;;;3.30;3.10;;;26.50;99.90;;;;;;4968343;28;20528;-76
2022/06/04 15:21:55;;;;;;;3.17;2.97;;;26.40;99.90;;;;;;4967651;28;22673;-77